sensor_id;sensor_type;location;lat;lon;timestamp;P1;durP1;ratioP1;P2;durP2;ratioP2
42420;SDS011;28063;48.140;11.588;2023-06-22T00:00:50;2.83;;;2.50;;
42420;SDS011;28063;48.140;11.588;2023-06-22T00:03:19;3.33;;;2.30;;
42420;SDS011;28063;48.140;11.588;2023-06-22T00:05:46;7.80;;;3.17;;
42420;SDS011;28063;48.140;11.588;2023-06-22T00:08:13;6.32;;;4.30;;
42420;SDS011;28063;48.140;11.588;2023-06-22T00:10:39;7.57;;;3.78;;
42420;SDS011;28063;48.140;11.588;2023-06-22T00:13:05;4.75;;;3.45;;
42420;SDS011;28063;48.140;11.588;2023-06-22T00:15:31;7.80;;;3.50;;
42420;SDS011;28063;48.140;11.588;2023-06-22T00:17:57;4.53;;;3.45;;
42420;SDS011;28063;48.140;11.588;2023-06-22T00:20:23;6.68;;;3.00;;
42420;SDS011;28063;48.140;11.588;2023-06-22T00:22:56;3.88;;;2.92;;
42420;SDS011;28063;48.140;11.588;2023-06-22T00:25:22;5.45;;;2.45;;
42420;SDS011;28063;48.140;11.588;2023-06-22T00:27:49;3.53;;;2.25;;
42420;SDS011;28063;48.140;11.588;2023-06-22T00:30:17;2.60;;;2.38;;
42420;SDS011;28063;48.140;11.588;2023-06-22T00:32:44;2.58;;;2.33;;
42420;SDS011;28063;48.140;11.588;2023-06-22T00:35:11;3.03;;;2.53;;
42420;SDS011;28063;48.140;11.588;2023-06-22T00:37:38;2.58;;;2.05;;
42420;SDS011;28063;48.140;11.588;2023-06-22T00:40:09;2.65;;;2.30;;
42420;SDS011;28063;48.140;11.588;2023-06-22T00:42:37;3.22;;;2.35;;
42420;SDS011;28063;48.140;11.588;2023-06-22T00:45:04;2.75;;;2.13;;
42420;SDS011;28063;48.140;11.588;2023-06-22T00:47:30;2.38;;;2.10;;
42420;SDS011;28063;48.140;11.588;2023-06-22T00:49:56;2.17;;;1.88;;
42420;SDS011;28063;48.140;11.588;2023-06-22T00:52:22;4.95;;;2.08;;
42420;SDS011;28063;48.140;11.588;2023-06-22T00:54:53;3.45;;;2.10;;
42420;SDS011;28063;48.140;11.588;2023-06-22T00:57:21;3.83;;;2.40;;
42420;SDS011;28063;48.140;11.588;2023-06-22T00:59:52;2.50;;;2.30;;
42420;SDS011;28063;48.140;11.588;2023-06-22T01:02:18;3.15;;;2.70;;
42420;SDS011;28063;48.140;11.588;2023-06-22T01:04:44;5.10;;;3.00;;
42420;SDS011;28063;48.140;11.588;2023-06-22T01:09:47;5.20;;;3.13;;
42420;SDS011;28063;48.140;11.588;2023-06-22T01:12:23;3.38;;;2.80;;
42420;SDS011;28063;48.140;11.588;2023-06-22T01:14:55;3.70;;;3.00;;
42420;SDS011;28063;48.140;11.588;2023-06-22T01:17:26;6.07;;;3.00;;
42420;SDS011;28063;48.140;11.588;2023-06-22T01:19:54;3.08;;;2.47;;
42420;SDS011;28063;48.140;11.588;2023-06-22T01:22:24;3.28;;;2.80;;
42420;SDS011;28063;48.140;11.588;2023-06-22T01:30:06;3.20;;;2.90;;
42420;SDS011;28063;48.140;11.588;2023-06-22T01:32:35;2.67;;;2.47;;
42420;SDS011;28063;48.140;11.588;2023-06-22T01:35:03;3.58;;;2.33;;
42420;SDS011;28063;48.140;11.588;2023-06-22T01:37:32;2.22;;;2.03;;
42420;SDS011;28063;48.140;11.588;2023-06-22T01:39:59;2.50;;;2.17;;
42420;SDS011;28063;48.140;11.588;2023-06-22T01:42:26;3.63;;;2.20;;
42420;SDS011;28063;48.140;11.588;2023-06-22T01:44:53;2.38;;;2.00;;
42420;SDS011;28063;48.140;11.588;2023-06-22T01:47:20;3.13;;;2.60;;
42420;SDS011;28063;48.140;11.588;2023-06-22T01:49:47;2.75;;;2.03;;
42420;SDS011;28063;48.140;11.588;2023-06-22T01:52:13;1.90;;;1.80;;
42420;SDS011;28063;48.140;11.588;2023-06-22T01:54:40;2.90;;;2.35;;
42420;SDS011;28063;48.140;11.588;2023-06-22T01:57:06;5.60;;;2.72;;
42420;SDS011;28063;48.140;11.588;2023-06-22T01:59:33;3.15;;;2.53;;
42420;SDS011;28063;48.140;11.588;2023-06-22T02:02:04;6.78;;;3.20;;
42420;SDS011;28063;48.140;11.588;2023-06-22T02:04:35;4.47;;;3.22;;
42420;SDS011;28063;48.140;11.588;2023-06-22T02:07:05;4.88;;;3.25;;
42420;SDS011;28063;48.140;11.588;2023-06-22T02:09:35;4.72;;;2.92;;
42420;SDS011;28063;48.140;11.588;2023-06-22T02:12:04;4.53;;;3.03;;
42420;SDS011;28063;48.140;11.588;2023-06-22T02:14:31;4.43;;;3.47;;
42420;SDS011;28063;48.140;11.588;2023-06-22T02:16:58;3.95;;;3.10;;
42420;SDS011;28063;48.140;11.588;2023-06-22T02:19:24;4.20;;;3.30;;
42420;SDS011;28063;48.140;11.588;2023-06-22T02:21:50;3.28;;;2.85;;
42420;SDS011;28063;48.140;11.588;2023-06-22T02:24:16;5.10;;;3.25;;
42420;SDS011;28063;48.140;11.588;2023-06-22T02:26:42;5.13;;;3.10;;
42420;SDS011;28063;48.140;11.588;2023-06-22T02:29:10;3.58;;;3.10;;
42420;SDS011;28063;48.140;11.588;2023-06-22T02:31:36;4.25;;;3.05;;
42420;SDS011;28063;48.140;11.588;2023-06-22T02:34:01;3.97;;;3.08;;
42420;SDS011;28063;48.140;11.588;2023-06-22T02:36:27;3.13;;;2.78;;
42420;SDS011;28063;48.140;11.588;2023-06-22T02:38:55;5.32;;;2.58;;
42420;SDS011;28063;48.140;11.588;2023-06-22T02:41:25;2.97;;;2.60;;
42420;SDS011;28063;48.140;11.588;2023-06-22T02:43:51;3.47;;;2.80;;
42420;SDS011;28063;48.140;11.588;2023-06-22T02:46:17;3.53;;;2.88;;
42420;SDS011;28063;48.140;11.588;2023-06-22T02:48:42;3.67;;;2.90;;
42420;SDS011;28063;48.140;11.588;2023-06-22T02:51:09;2.85;;;2.17;;
42420;SDS011;28063;48.140;11.588;2023-06-22T02:53:34;3.92;;;2.75;;
42420;SDS011;28063;48.140;11.588;2023-06-22T02:56:01;3.55;;;2.88;;
42420;SDS011;28063;48.140;11.588;2023-06-22T02:58:30;4.25;;;2.80;;
42420;SDS011;28063;48.140;11.588;2023-06-22T03:01:04;6.53;;;3.30;;
42420;SDS011;28063;48.140;11.588;2023-06-22T03:03:30;9.68;;;4.47;;
42420;SDS011;28063;48.140;11.588;2023-06-22T03:05:56;4.22;;;3.60;;
42420;SDS011;28063;48.140;11.588;2023-06-22T03:08:22;4.45;;;3.05;;
42420;SDS011;28063;48.140;11.588;2023-06-22T03:10:47;3.50;;;3.03;;
42420;SDS011;28063;48.140;11.588;2023-06-22T03:13:13;3.90;;;3.22;;
42420;SDS011;28063;48.140;11.588;2023-06-22T03:15:39;5.70;;;3.10;;
42420;SDS011;28063;48.140;11.588;2023-06-22T03:18:04;3.00;;;2.53;;
42420;SDS011;28063;48.140;11.588;2023-06-22T03:20:30;4.60;;;3.03;;
42420;SDS011;28063;48.140;11.588;2023-06-22T03:22:58;2.78;;;2.35;;
42420;SDS011;28063;48.140;11.588;2023-06-22T03:25:24;2.40;;;2.20;;
42420;SDS011;28063;48.140;11.588;2023-06-22T03:27:50;2.58;;;2.00;;
42420;SDS011;28063;48.140;11.588;2023-06-22T03:30:16;1.85;;;1.75;;
42420;SDS011;28063;48.140;11.588;2023-06-22T03:32:42;2.17;;;2.00;;
42420;SDS011;28063;48.140;11.588;2023-06-22T03:35:08;1.90;;;1.80;;
42420;SDS011;28063;48.140;11.588;2023-06-22T03:37:34;1.83;;;1.73;;
42420;SDS011;28063;48.140;11.588;2023-06-22T03:40:00;1.88;;;1.77;;
42420;SDS011;28063;48.140;11.588;2023-06-22T03:42:25;2.08;;;1.90;;
42420;SDS011;28063;48.140;11.588;2023-06-22T03:44:51;1.92;;;1.75;;
42420;SDS011;28063;48.140;11.588;2023-06-22T03:47:17;2.60;;;2.40;;
42420;SDS011;28063;48.140;11.588;2023-06-22T03:49:43;3.53;;;2.40;;
42420;SDS011;28063;48.140;11.588;2023-06-22T03:52:08;2.10;;;1.90;;
42420;SDS011;28063;48.140;11.588;2023-06-22T03:54:35;2.63;;;2.08;;
42420;SDS011;28063;48.140;11.588;2023-06-22T03:57:01;3.92;;;2.38;;
42420;SDS011;28063;48.140;11.588;2023-06-22T03:59:27;2.50;;;2.30;;
42420;SDS011;28063;48.140;11.588;2023-06-22T04:01:52;3.75;;;2.67;;
42420;SDS011;28063;48.140;11.588;2023-06-22T04:04:18;2.92;;;2.47;;
42420;SDS011;28063;48.140;11.588;2023-06-22T04:06:44;2.50;;;2.30;;
42420;SDS011;28063;48.140;11.588;2023-06-22T04:09:09;2.85;;;2.40;;
42420;SDS011;28063;48.140;11.588;2023-06-22T04:11:35;3.50;;;2.63;;
42420;SDS011;28063;48.140;11.588;2023-06-22T04:14:01;3.50;;;2.80;;
42420;SDS011;28063;48.140;11.588;2023-06-22T04:16:26;3.70;;;2.67;;
42420;SDS011;28063;48.140;11.588;2023-06-22T04:18:52;6.53;;;3.15;;
42420;SDS011;28063;48.140;11.588;2023-06-22T04:21:18;3.00;;;2.58;;
42420;SDS011;28063;48.140;11.588;2023-06-22T04:23:44;3.40;;;2.50;;
42420;SDS011;28063;48.140;11.588;2023-06-22T04:26:11;2.63;;;2.40;;
42420;SDS011;28063;48.140;11.588;2023-06-22T04:28:38;5.10;;;2.40;;
42420;SDS011;28063;48.140;11.588;2023-06-22T04:31:06;5.28;;;3.00;;
42420;SDS011;28063;48.140;11.588;2023-06-22T04:33:31;2.80;;;2.60;;
42420;SDS011;28063;48.140;11.588;2023-06-22T04:35:57;3.08;;;2.22;;
42420;SDS011;28063;48.140;11.588;2023-06-22T04:38:26;2.22;;;2.05;;
42420;SDS011;28063;48.140;11.588;2023-06-22T04:40:51;2.53;;;2.33;;
42420;SDS011;28063;48.140;11.588;2023-06-22T04:43:18;4.28;;;2.80;;
42420;SDS011;28063;48.140;11.588;2023-06-22T04:45:44;3.15;;;2.30;;
42420;SDS011;28063;48.140;11.588;2023-06-22T04:48:09;3.20;;;2.53;;
42420;SDS011;28063;48.140;11.588;2023-06-22T04:50:37;5.57;;;2.83;;
42420;SDS011;28063;48.140;11.588;2023-06-22T04:53:04;3.70;;;2.72;;
42420;SDS011;28063;48.140;11.588;2023-06-22T04:55:31;2.50;;;2.30;;
42420;SDS011;28063;48.140;11.588;2023-06-22T04:57:57;2.92;;;2.53;;
42420;SDS011;28063;48.140;11.588;2023-06-22T05:00:30;5.85;;;3.15;;
42420;SDS011;28063;48.140;11.588;2023-06-22T05:02:56;4.55;;;3.65;;
42420;SDS011;28063;48.140;11.588;2023-06-22T05:05:22;3.92;;;2.92;;
42420;SDS011;28063;48.140;11.588;2023-06-22T05:07:49;4.45;;;2.78;;
42420;SDS011;28063;48.140;11.588;2023-06-22T05:10:18;2.67;;;2.47;;
42420;SDS011;28063;48.140;11.588;2023-06-22T05:12:45;5.07;;;2.83;;
42420;SDS011;28063;48.140;11.588;2023-06-22T05:15:11;2.58;;;2.33;;
42420;SDS011;28063;48.140;11.588;2023-06-22T05:17:37;3.75;;;2.35;;
42420;SDS011;28063;48.140;11.588;2023-06-22T05:20:08;3.40;;;2.85;;
42420;SDS011;28063;48.140;11.588;2023-06-22T05:22:35;2.55;;;2.35;;
42420;SDS011;28063;48.140;11.588;2023-06-22T05:25:00;2.78;;;2.58;;
42420;SDS011;28063;48.140;11.588;2023-06-22T05:27:26;2.60;;;2.40;;
42420;SDS011;28063;48.140;11.588;2023-06-22T05:29:52;3.15;;;2.67;;
42420;SDS011;28063;48.140;11.588;2023-06-22T05:32:17;3.42;;;2.33;;
42420;SDS011;28063;48.140;11.588;2023-06-22T05:34:43;2.58;;;2.30;;
42420;SDS011;28063;48.140;11.588;2023-06-22T05:37:09;4.93;;;3.53;;
42420;SDS011;28063;48.140;11.588;2023-06-22T05:39:35;3.40;;;3.10;;
42420;SDS011;28063;48.140;11.588;2023-06-22T05:42:05;4.47;;;3.13;;
42420;SDS011;28063;48.140;11.588;2023-06-22T05:44:31;3.47;;;3.15;;
42420;SDS011;28063;48.140;11.588;2023-06-22T05:46:58;7.28;;;3.60;;
42420;SDS011;28063;48.140;11.588;2023-06-22T05:49:24;4.85;;;3.42;;
42420;SDS011;28063;48.140;11.588;2023-06-22T05:51:54;4.00;;;3.60;;
42420;SDS011;28063;48.140;11.588;2023-06-22T05:54:21;3.67;;;3.08;;
42420;SDS011;28063;48.140;11.588;2023-06-22T05:56:46;2.50;;;2.40;;
42420;SDS011;28063;48.140;11.588;2023-06-22T05:59:12;4.88;;;3.63;;
42420;SDS011;28063;48.140;11.588;2023-06-22T06:01:38;4.47;;;3.58;;
42420;SDS011;28063;48.140;11.588;2023-06-22T06:04:04;7.75;;;4.50;;
42420;SDS011;28063;48.140;11.588;2023-06-22T06:06:33;4.43;;;4.03;;
42420;SDS011;28063;48.140;11.588;2023-06-22T06:09:02;4.30;;;3.63;;
42420;SDS011;28063;48.140;11.588;2023-06-22T06:11:32;3.88;;;3.47;;
42420;SDS011;28063;48.140;11.588;2023-06-22T06:13:58;4.88;;;3.60;;
42420;SDS011;28063;48.140;11.588;2023-06-22T06:16:24;5.85;;;4.40;;
42420;SDS011;28063;48.140;11.588;2023-06-22T06:18:50;4.53;;;4.07;;
42420;SDS011;28063;48.140;11.588;2023-06-22T06:21:15;4.43;;;4.03;;
42420;SDS011;28063;48.140;11.588;2023-06-22T06:23:41;4.13;;;3.70;;
42420;SDS011;28063;48.140;11.588;2023-06-22T06:26:07;5.10;;;3.72;;
42420;SDS011;28063;48.140;11.588;2023-06-22T06:28:33;4.00;;;3.35;;
42420;SDS011;28063;48.140;11.588;2023-06-22T06:30:59;4.28;;;3.40;;
42420;SDS011;28063;48.140;11.588;2023-06-22T06:33:25;3.08;;;2.88;;
42420;SDS011;28063;48.140;11.588;2023-06-22T06:35:50;3.33;;;3.08;;
42420;SDS011;28063;48.140;11.588;2023-06-22T06:38:16;3.28;;;3.00;;
42420;SDS011;28063;48.140;11.588;2023-06-22T06:40:42;3.92;;;3.08;;
42420;SDS011;28063;48.140;11.588;2023-06-22T06:43:08;5.20;;;3.78;;
42420;SDS011;28063;48.140;11.588;2023-06-22T06:45:33;5.40;;;4.57;;
42420;SDS011;28063;48.140;11.588;2023-06-22T06:47:59;3.80;;;3.47;;
42420;SDS011;28063;48.140;11.588;2023-06-22T06:50:25;3.70;;;3.35;;
42420;SDS011;28063;48.140;11.588;2023-06-22T06:52:56;3.80;;;3.45;;
42420;SDS011;28063;48.140;11.588;2023-06-22T06:55:24;10.07;;;4.75;;
42420;SDS011;28063;48.140;11.588;2023-06-22T06:57:50;5.78;;;4.22;;
42420;SDS011;28063;48.140;11.588;2023-06-22T07:00:17;9.32;;;5.40;;
42420;SDS011;28063;48.140;11.588;2023-06-22T07:02:44;11.32;;;5.70;;
42420;SDS011;28063;48.140;11.588;2023-06-22T07:05:11;7.55;;;4.80;;
42420;SDS011;28063;48.140;11.588;2023-06-22T07:07:38;7.15;;;4.75;;
42420;SDS011;28063;48.140;11.588;2023-06-22T07:10:04;9.93;;;5.07;;
42420;SDS011;28063;48.140;11.588;2023-06-22T07:12:31;7.35;;;4.72;;
42420;SDS011;28063;48.140;11.588;2023-06-22T07:15:03;9.00;;;5.97;;
42420;SDS011;28063;48.140;11.588;2023-06-22T07:17:30;5.57;;;4.97;;
42420;SDS011;28063;48.140;11.588;2023-06-22T07:19:57;4.45;;;4.00;;
42420;SDS011;28063;48.140;11.588;2023-06-22T07:22:22;5.53;;;4.43;;
42420;SDS011;28063;48.140;11.588;2023-06-22T07:24:48;4.93;;;4.53;;
42420;SDS011;28063;48.140;11.588;2023-06-22T07:27:14;5.50;;;4.20;;
42420;SDS011;28063;48.140;11.588;2023-06-22T07:29:43;9.25;;;5.90;;
42420;SDS011;28063;48.140;11.588;2023-06-22T07:32:09;7.53;;;5.45;;
42420;SDS011;28063;48.140;11.588;2023-06-22T07:34:34;9.75;;;6.03;;
42420;SDS011;28063;48.140;11.588;2023-06-22T07:37:00;7.88;;;5.90;;
42420;SDS011;28063;48.140;11.588;2023-06-22T07:39:26;10.07;;;6.20;;
42420;SDS011;28063;48.140;11.588;2023-06-22T07:41:53;13.13;;;6.82;;
42420;SDS011;28063;48.140;11.588;2023-06-22T07:44:19;9.63;;;6.20;;
42420;SDS011;28063;48.140;11.588;2023-06-22T07:46:45;9.00;;;5.85;;
42420;SDS011;28063;48.140;11.588;2023-06-22T07:49:11;12.13;;;7.03;;
42420;SDS011;28063;48.140;11.588;2023-06-22T07:51:37;6.97;;;5.38;;
42420;SDS011;28063;48.140;11.588;2023-06-22T07:54:03;5.93;;;5.32;;
42420;SDS011;28063;48.140;11.588;2023-06-22T07:56:28;9.63;;;5.95;;
42420;SDS011;28063;48.140;11.588;2023-06-22T07:58:54;9.35;;;5.75;;
42420;SDS011;28063;48.140;11.588;2023-06-22T08:01:23;6.15;;;5.15;;
42420;SDS011;28063;48.140;11.588;2023-06-22T08:03:48;6.88;;;5.05;;
42420;SDS011;28063;48.140;11.588;2023-06-22T08:06:14;11.20;;;5.18;;
42420;SDS011;28063;48.140;11.588;2023-06-22T08:08:41;5.70;;;4.82;;
42420;SDS011;28063;48.140;11.588;2023-06-22T08:11:07;5.95;;;4.88;;
42420;SDS011;28063;48.140;11.588;2023-06-22T08:13:33;5.82;;;4.95;;
42420;SDS011;28063;48.140;11.588;2023-06-22T08:15:59;8.15;;;5.15;;
42420;SDS011;28063;48.140;11.588;2023-06-22T08:18:25;8.30;;;6.07;;
42420;SDS011;28063;48.140;11.588;2023-06-22T08:20:50;8.98;;;5.43;;
42420;SDS011;28063;48.140;11.588;2023-06-22T08:23:16;8.80;;;5.40;;
42420;SDS011;28063;48.140;11.588;2023-06-22T08:25:42;6.43;;;5.15;;
42420;SDS011;28063;48.140;11.588;2023-06-22T08:28:08;11.85;;;6.25;;
42420;SDS011;28063;48.140;11.588;2023-06-22T08:30:34;7.82;;;5.63;;
42420;SDS011;28063;48.140;11.588;2023-06-22T08:32:59;10.73;;;6.18;;
42420;SDS011;28063;48.140;11.588;2023-06-22T08:35:25;10.77;;;6.60;;
42420;SDS011;28063;48.140;11.588;2023-06-22T08:37:51;11.63;;;6.75;;
42420;SDS011;28063;48.140;11.588;2023-06-22T08:40:21;11.13;;;6.53;;
42420;SDS011;28063;48.140;11.588;2023-06-22T08:42:48;8.13;;;5.65;;
42420;SDS011;28063;48.140;11.588;2023-06-22T08:45:14;8.45;;;6.13;;
42420;SDS011;28063;48.140;11.588;2023-06-22T08:47:40;8.13;;;6.10;;
42420;SDS011;28063;48.140;11.588;2023-06-22T08:50:07;10.02;;;5.80;;
42420;SDS011;28063;48.140;11.588;2023-06-22T08:52:34;8.50;;;5.97;;
42420;SDS011;28063;48.140;11.588;2023-06-22T08:55:00;11.35;;;6.38;;
42420;SDS011;28063;48.140;11.588;2023-06-22T08:57:26;10.27;;;5.68;;
42420;SDS011;28063;48.140;11.588;2023-06-22T08:59:52;10.93;;;5.70;;
42420;SDS011;28063;48.140;11.588;2023-06-22T09:02:18;9.10;;;5.85;;
42420;SDS011;28063;48.140;11.588;2023-06-22T09:04:45;10.23;;;6.15;;
42420;SDS011;28063;48.140;11.588;2023-06-22T09:07:11;12.35;;;6.03;;
42420;SDS011;28063;48.140;11.588;2023-06-22T09:09:37;8.13;;;5.50;;
42420;SDS011;28063;48.140;11.588;2023-06-22T09:12:03;9.65;;;5.38;;
42420;SDS011;28063;48.140;11.588;2023-06-22T09:14:29;11.80;;;6.43;;
42420;SDS011;28063;48.140;11.588;2023-06-22T09:16:55;8.45;;;5.72;;
42420;SDS011;28063;48.140;11.588;2023-06-22T09:19:20;6.70;;;5.45;;
42420;SDS011;28063;48.140;11.588;2023-06-22T09:21:46;8.57;;;5.05;;
42420;SDS011;28063;48.140;11.588;2023-06-22T09:24:12;10.32;;;6.50;;
42420;SDS011;28063;48.140;11.588;2023-06-22T09:26:37;9.55;;;5.72;;
42420;SDS011;28063;48.140;11.588;2023-06-22T09:29:06;6.55;;;5.78;;
42420;SDS011;28063;48.140;11.588;2023-06-22T09:31:32;11.40;;;6.35;;
42420;SDS011;28063;48.140;11.588;2023-06-22T09:33:57;6.05;;;5.13;;
42420;SDS011;28063;48.140;11.588;2023-06-22T09:36:23;8.95;;;6.13;;
42420;SDS011;28063;48.140;11.588;2023-06-22T09:38:49;8.77;;;5.45;;
42420;SDS011;28063;48.140;11.588;2023-06-22T09:41:21;8.77;;;5.03;;
42420;SDS011;28063;48.140;11.588;2023-06-22T09:43:47;8.45;;;5.22;;
42420;SDS011;28063;48.140;11.588;2023-06-22T09:46:14;6.82;;;5.03;;
42420;SDS011;28063;48.140;11.588;2023-06-22T09:48:40;8.85;;;5.80;;
42420;SDS011;28063;48.140;11.588;2023-06-22T09:51:06;8.88;;;5.40;;
42420;SDS011;28063;48.140;11.588;2023-06-22T09:53:31;12.40;;;5.32;;
42420;SDS011;28063;48.140;11.588;2023-06-22T09:55:57;10.38;;;5.97;;
42420;SDS011;28063;48.140;11.588;2023-06-22T09:58:23;10.98;;;6.65;;
42420;SDS011;28063;48.140;11.588;2023-06-22T10:00:48;12.85;;;6.57;;
42420;SDS011;28063;48.140;11.588;2023-06-22T10:03:14;6.97;;;5.40;;
42420;SDS011;28063;48.140;11.588;2023-06-22T10:05:40;9.27;;;5.72;;
42420;SDS011;28063;48.140;11.588;2023-06-22T10:08:05;8.77;;;5.90;;
42420;SDS011;28063;48.140;11.588;2023-06-22T10:10:32;13.02;;;6.72;;
42420;SDS011;28063;48.140;11.588;2023-06-22T10:13:02;12.02;;;6.65;;
42420;SDS011;28063;48.140;11.588;2023-06-22T10:15:35;10.82;;;5.90;;
42420;SDS011;28063;48.140;11.588;2023-06-22T10:18:01;8.48;;;5.10;;
42420;SDS011;28063;48.140;11.588;2023-06-22T10:20:27;9.20;;;5.72;;
42420;SDS011;28063;48.140;11.588;2023-06-22T10:22:53;12.65;;;6.90;;
42420;SDS011;28063;48.140;11.588;2023-06-22T10:25:18;13.32;;;7.13;;
42420;SDS011;28063;48.140;11.588;2023-06-22T10:27:44;10.18;;;6.18;;
42420;SDS011;28063;48.140;11.588;2023-06-22T10:30:10;9.23;;;5.88;;
42420;SDS011;28063;48.140;11.588;2023-06-22T10:32:40;9.32;;;6.07;;
42420;SDS011;28063;48.140;11.588;2023-06-22T10:35:10;6.85;;;5.57;;
42420;SDS011;28063;48.140;11.588;2023-06-22T10:37:38;13.10;;;6.18;;
42420;SDS011;28063;48.140;11.588;2023-06-22T10:40:04;5.45;;;4.95;;
42420;SDS011;28063;48.140;11.588;2023-06-22T10:42:30;10.43;;;5.88;;
42420;SDS011;28063;48.140;11.588;2023-06-22T10:44:56;6.88;;;5.50;;
42420;SDS011;28063;48.140;11.588;2023-06-22T10:47:22;9.90;;;6.10;;
42420;SDS011;28063;48.140;11.588;2023-06-22T10:49:47;5.13;;;4.63;;
42420;SDS011;28063;48.140;11.588;2023-06-22T10:52:13;9.73;;;5.90;;
42420;SDS011;28063;48.140;11.588;2023-06-22T10:54:39;12.00;;;6.32;;
42420;SDS011;28063;48.140;11.588;2023-06-22T10:57:05;6.95;;;5.43;;
42420;SDS011;28063;48.140;11.588;2023-06-22T10:59:31;10.02;;;6.32;;
42420;SDS011;28063;48.140;11.588;2023-06-22T11:01:56;10.93;;;6.35;;
42420;SDS011;28063;48.140;11.588;2023-06-22T11:04:23;9.68;;;6.50;;
42420;SDS011;28063;48.140;11.588;2023-06-22T11:06:49;7.60;;;5.55;;
42420;SDS011;28063;48.140;11.588;2023-06-22T11:09:15;5.82;;;5.13;;
42420;SDS011;28063;48.140;11.588;2023-06-22T11:11:49;9.98;;;5.80;;
42420;SDS011;28063;48.140;11.588;2023-06-22T11:14:18;13.20;;;6.50;;
42420;SDS011;28063;48.140;11.588;2023-06-22T11:16:44;7.38;;;5.57;;
42420;SDS011;28063;48.140;11.588;2023-06-22T11:19:11;6.25;;;5.63;;
42420;SDS011;28063;48.140;11.588;2023-06-22T11:21:37;13.02;;;6.32;;
42420;SDS011;28063;48.140;11.588;2023-06-22T11:24:03;9.50;;;5.47;;
42420;SDS011;28063;48.140;11.588;2023-06-22T11:26:28;11.77;;;6.18;;
42420;SDS011;28063;48.140;11.588;2023-06-22T11:28:55;10.30;;;5.85;;
42420;SDS011;28063;48.140;11.588;2023-06-22T11:31:20;8.25;;;5.60;;
42420;SDS011;28063;48.140;11.588;2023-06-22T11:33:46;10.55;;;6.28;;
42420;SDS011;28063;48.140;11.588;2023-06-22T11:36:13;15.90;;;7.55;;
42420;SDS011;28063;48.140;11.588;2023-06-22T11:38:39;10.75;;;6.15;;
42420;SDS011;28063;48.140;11.588;2023-06-22T11:41:05;9.13;;;6.07;;
42420;SDS011;28063;48.140;11.588;2023-06-22T11:43:32;7.63;;;6.57;;
42420;SDS011;28063;48.140;11.588;2023-06-22T11:45:59;10.02;;;6.22;;
42420;SDS011;28063;48.140;11.588;2023-06-22T11:48:25;10.93;;;7.40;;
42420;SDS011;28063;48.140;11.588;2023-06-22T11:50:51;12.05;;;7.22;;
42420;SDS011;28063;48.140;11.588;2023-06-22T11:53:17;10.18;;;6.53;;
42420;SDS011;28063;48.140;11.588;2023-06-22T11:55:43;11.95;;;6.25;;
42420;SDS011;28063;48.140;11.588;2023-06-22T11:58:09;12.73;;;6.63;;
42420;SDS011;28063;48.140;11.588;2023-06-22T12:00:35;13.23;;;5.82;;
42420;SDS011;28063;48.140;11.588;2023-06-22T12:03:00;7.93;;;6.00;;
42420;SDS011;28063;48.140;11.588;2023-06-22T12:05:26;8.70;;;6.35;;
42420;SDS011;28063;48.140;11.588;2023-06-22T12:07:53;10.18;;;6.18;;
42420;SDS011;28063;48.140;11.588;2023-06-22T12:10:19;14.15;;;7.13;;
42420;SDS011;28063;48.140;11.588;2023-06-22T12:12:45;15.25;;;6.30;;
42420;SDS011;28063;48.140;11.588;2023-06-22T12:15:11;12.63;;;6.97;;
42420;SDS011;28063;48.140;11.588;2023-06-22T12:17:37;18.80;;;7.80;;
42420;SDS011;28063;48.140;11.588;2023-06-22T12:20:03;10.98;;;6.20;;
42420;SDS011;28063;48.140;11.588;2023-06-22T12:22:33;14.50;;;6.53;;
42420;SDS011;28063;48.140;11.588;2023-06-22T12:24:59;11.38;;;6.72;;
42420;SDS011;28063;48.140;11.588;2023-06-22T12:27:26;11.38;;;6.65;;
42420;SDS011;28063;48.140;11.588;2023-06-22T12:29:52;12.57;;;7.03;;
42420;SDS011;28063;48.140;11.588;2023-06-22T12:32:18;16.27;;;7.07;;
42420;SDS011;28063;48.140;11.588;2023-06-22T12:34:44;19.23;;;7.53;;
42420;SDS011;28063;48.140;11.588;2023-06-22T12:37:10;8.65;;;6.28;;
42420;SDS011;28063;48.140;11.588;2023-06-22T12:39:36;11.93;;;6.53;;
42420;SDS011;28063;48.140;11.588;2023-06-22T12:42:01;9.68;;;6.50;;
42420;SDS011;28063;48.140;11.588;2023-06-22T12:44:27;6.25;;;5.63;;
42420;SDS011;28063;48.140;11.588;2023-06-22T12:46:53;11.77;;;6.75;;
42420;SDS011;28063;48.140;11.588;2023-06-22T12:49:18;13.63;;;6.18;;
42420;SDS011;28063;48.140;11.588;2023-06-22T12:51:44;15.75;;;7.07;;
42420;SDS011;28063;48.140;11.588;2023-06-22T12:54:10;11.65;;;5.88;;
42420;SDS011;28063;48.140;11.588;2023-06-22T12:56:37;8.90;;;6.43;;
42420;SDS011;28063;48.140;11.588;2023-06-22T12:59:03;7.97;;;5.90;;
42420;SDS011;28063;48.140;11.588;2023-06-22T13:01:29;10.27;;;6.50;;
42420;SDS011;28063;48.140;11.588;2023-06-22T13:03:56;11.60;;;6.35;;
42420;SDS011;28063;48.140;11.588;2023-06-22T13:06:23;16.10;;;7.70;;
42420;SDS011;28063;48.140;11.588;2023-06-22T13:08:48;9.85;;;6.45;;
42420;SDS011;28063;48.140;11.588;2023-06-22T13:11:14;12.20;;;6.70;;
42420;SDS011;28063;48.140;11.588;2023-06-22T13:13:40;9.05;;;5.55;;
42420;SDS011;28063;48.140;11.588;2023-06-22T13:16:05;8.73;;;5.55;;
42420;SDS011;28063;48.140;11.588;2023-06-22T13:18:31;8.43;;;5.85;;
42420;SDS011;28063;48.140;11.588;2023-06-22T13:20:58;8.07;;;6.00;;
42420;SDS011;28063;48.140;11.588;2023-06-22T13:23:25;10.88;;;5.68;;
42420;SDS011;28063;48.140;11.588;2023-06-22T13:25:50;14.15;;;6.50;;
42420;SDS011;28063;48.140;11.588;2023-06-22T13:28:16;9.90;;;6.35;;
42420;SDS011;28063;48.140;11.588;2023-06-22T13:30:43;11.95;;;6.40;;
42420;SDS011;28063;48.140;11.588;2023-06-22T13:33:12;9.02;;;6.65;;
42420;SDS011;28063;48.140;11.588;2023-06-22T13:35:41;9.98;;;6.00;;
42420;SDS011;28063;48.140;11.588;2023-06-22T13:38:09;14.45;;;6.45;;
42420;SDS011;28063;48.140;11.588;2023-06-22T13:40:35;9.98;;;6.38;;
42420;SDS011;28063;48.140;11.588;2023-06-22T13:43:04;10.30;;;6.32;;
42420;SDS011;28063;48.140;11.588;2023-06-22T13:45:30;13.77;;;6.28;;
42420;SDS011;28063;48.140;11.588;2023-06-22T13:47:56;8.52;;;5.88;;
42420;SDS011;28063;48.140;11.588;2023-06-22T13:50:22;9.45;;;5.68;;
42420;SDS011;28063;48.140;11.588;2023-06-22T13:52:47;11.25;;;6.35;;
42420;SDS011;28063;48.140;11.588;2023-06-22T13:55:13;11.45;;;6.13;;
42420;SDS011;28063;48.140;11.588;2023-06-22T13:57:39;9.55;;;5.28;;
42420;SDS011;28063;48.140;11.588;2023-06-22T14:00:06;10.32;;;5.65;;
42420;SDS011;28063;48.140;11.588;2023-06-22T14:02:35;8.93;;;5.50;;
42420;SDS011;28063;48.140;11.588;2023-06-22T14:05:00;10.63;;;5.72;;
42420;SDS011;28063;48.140;11.588;2023-06-22T14:07:27;7.00;;;5.93;;
42420;SDS011;28063;48.140;11.588;2023-06-22T14:09:53;9.30;;;5.72;;
42420;SDS011;28063;48.140;11.588;2023-06-22T14:12:18;8.35;;;5.38;;
42420;SDS011;28063;48.140;11.588;2023-06-22T14:14:44;6.25;;;5.55;;
42420;SDS011;28063;48.140;11.588;2023-06-22T14:17:10;8.90;;;5.40;;
42420;SDS011;28063;48.140;11.588;2023-06-22T14:19:36;12.68;;;5.85;;
42420;SDS011;28063;48.140;11.588;2023-06-22T14:22:02;10.27;;;6.15;;
42420;SDS011;28063;48.140;11.588;2023-06-22T14:24:28;11.13;;;5.65;;
42420;SDS011;28063;48.140;11.588;2023-06-22T14:26:54;10.38;;;6.03;;
42420;SDS011;28063;48.140;11.588;2023-06-22T14:29:21;10.85;;;5.75;;
42420;SDS011;28063;48.140;11.588;2023-06-22T14:31:48;7.25;;;5.13;;
42420;SDS011;28063;48.140;11.588;2023-06-22T14:34:14;9.38;;;5.47;;